Time;durP1;ratioP1;P1;durP2;ratioP2;P2;SDS_P1;SDS_P2;PMS_P1;PMS_P2;Temp;Humidity;BMP_temperature;BMP_pressure;BME280_temperature;BME280_humidity;BME280_pressure;Samples;Min_cycle;Max_cycle;Signal;HPM_P1;HPM_P2
2022/10/31 16:37:45;;;;;;;41.73;26.13;;;21.50;81.30;;;;;;5130249;27;20300;-68
2022/10/31 16:40:14;;;;;;;41.97;29.27;;;20.70;78.00;;;;;;5131588;27;20620;-70
2022/10/31 16:42:43;;;;;;;46.97;31.03;;;19.10;84.10;;;;;;5129222;27;20687;-69
2022/10/31 16:45:18;;;;;;;52.50;35.40;;;18.00;90.40;;;;;;5131309;28;20198;-68
2022/10/31 16:47:48;;;;;;;51.77;34.03;;;17.20;93.00;;;;;;5131168;27;20198;-67
2022/10/31 16:50:19;;;;;;;47.37;33.97;;;16.70;94.90;;;;;;5131124;27;20234;-71
2022/10/31 16:52:48;;;;;;;47.10;28.73;;;16.30;96.40;;;;;;5131229;28;20206;-66
2022/10/31 16:55:44;;;;;;;48.13;30.73;;;16.00;97.40;;;;;;5130800;27;20192;-66
2022/10/31 16:58:19;;;;;;;43.97;28.10;;;15.70;98.50;;;;;;5130914;27;20189;-67
2022/10/31 17:00:48;;;;;;;45.33;31.20;;;15.50;99.30;;;;;;5131072;27;20192;-68
2022/10/31 17:03:17;;;;;;;40.53;24.43;;;15.40;99.90;;;;;;5130947;27;20192;-69
2022/10/31 17:05:45;;;;;;;42.60;25.40;;;15.30;99.90;;;;;;5130915;27;20236;-74
2022/10/31 17:08:15;;;;;;;43.77;26.33;;;15.20;99.90;;;;;;5130806;27;20190;-68
2022/10/31 17:10:46;;;;;;;42.53;25.77;;;15.10;99.90;;;;;;5130714;27;20224;-69
2022/10/31 17:13:19;;;;;;;43.33;27.10;;;15.00;99.90;;;;;;5130465;27;20223;-68
2022/10/31 17:15:50;;;;;;;46.50;28.93;;;15.00;99.90;;;;;;5130353;27;20197;-70
2022/10/31 17:18:19;;;;;;;38.73;25.13;;;14.80;99.90;;;;;;5095408;28;20225;-73
2022/10/31 17:20:58;;;;;;;48.07;28.30;;;14.80;99.90;;;;;;5089607;28;20276;-67
2022/10/31 17:23:29;;;;;;;46.73;27.87;;;14.70;99.90;;;;;;5104642;28;20268;-71
2022/10/31 17:25:58;;;;;;;46.23;30.27;;;14.70;99.90;;;;;;5109908;28;20202;-67
2022/10/31 17:28:27;;;;;;;49.67;30.03;;;14.60;99.90;;;;;;5109702;28;20190;-68
2022/10/31 17:30:58;;;;;;;48.47;29.43;;;14.50;99.90;;;;;;5090674;28;20213;-66
2022/10/31 17:33:31;;;;;;;51.33;31.70;;;14.40;99.90;;;;;;5089420;28;20279;-73
2022/10/31 17:36:02;;;;;;;46.67;28.47;;;14.40;99.90;;;;;;5089250;28;20281;-67
2022/10/31 17:38:32;;;;;;;53.10;33.03;;;14.30;99.90;;;;;;5089437;28;20567;-67
2022/10/31 17:41:05;;;;;;;49.03;30.17;;;14.30;99.90;;;;;;5089126;28;20196;-67
2022/10/31 17:43:36;;;;;;;49.03;30.43;;;14.30;99.90;;;;;;5096464;28;20227;-67
2022/10/31 17:46:05;;;;;;;59.37;34.57;;;14.30;99.90;;;;;;5109533;28;20590;-68
2022/10/31 17:48:35;;;;;;;61.03;36.43;;;14.30;99.90;;;;;;5098491;28;20189;-70
2022/10/31 17:51:05;;;;;;;67.60;41.57;;;14.30;99.90;;;;;;5095793;28;20203;-68
2022/10/31 17:53:35;;;;;;;99.70;58.57;;;14.30;99.90;;;;;;5095548;28;20228;-73
2022/10/31 17:56:05;;;;;;;111.27;65.97;;;14.30;99.90;;;;;;5095511;28;20241;-67
2022/10/31 17:58:35;;;;;;;115.97;67.43;;;14.20;99.90;;;;;;5095563;28;20210;-68
2022/10/31 18:01:08;;;;;;;110.30;67.27;;;14.20;99.90;;;;;;5095460;28;20210;-67
2022/10/31 18:03:37;;;;;;;122.00;66.77;;;14.20;99.90;;;;;;5095628;28;20209;-68
2022/10/31 18:06:06;;;;;;;113.67;64.40;;;14.20;99.90;;;;;;5095246;28;20669;-68
2022/10/31 18:08:37;;;;;;;97.90;56.73;;;14.20;99.90;;;;;;5095384;28;20208;-69
2022/10/31 18:11:08;;;;;;;89.83;54.87;;;14.10;99.90;;;;;;5095278;28;20189;-67
2022/10/31 18:13:38;;;;;;;89.30;52.33;;;14.10;99.90;;;;;;5095168;28;20198;-68
2022/10/31 18:16:10;;;;;;;92.67;53.10;;;14.00;99.90;;;;;;5085928;28;20189;-68
2022/10/31 18:18:39;;;;;;;94.47;54.33;;;14.00;99.90;;;;;;5084872;28;20747;-67
2022/10/31 18:21:07;;;;;;;96.43;59.13;;;14.00;99.90;;;;;;5095018;28;20255;-68
2022/10/31 18:23:37;;;;;;;95.73;53.60;;;13.90;99.90;;;;;;5095108;28;20201;-67
2022/10/31 18:26:05;;;;;;;80.20;50.20;;;13.90;99.90;;;;;;5075681;28;20687;-67
2022/10/31 18:28:34;;;;;;;65.97;45.20;;;13.90;99.90;;;;;;5074860;28;20194;-68
2022/10/31 18:31:02;;;;;;;46.40;32.03;;;13.90;99.90;;;;;;5074585;28;20231;-67
2022/10/31 18:33:31;;;;;;;39.63;26.73;;;13.90;99.90;;;;;;5074583;28;20195;-67
2022/10/31 18:36:05;;;;;;;37.03;24.30;;;13.80;99.90;;;;;;5074336;28;20584;-67
2022/10/31 18:38:33;;;;;;;41.57;28.30;;;13.70;99.90;;;;;;5074529;28;20225;-67
2022/10/31 18:41:03;;;;;;;38.97;24.70;;;13.70;99.90;;;;;;5074636;28;20203;-69
2022/10/31 18:43:33;;;;;;;37.50;24.80;;;13.70;99.90;;;;;;5074320;28;20198;-69
2022/10/31 18:46:02;;;;;;;40.50;27.17;;;13.70;99.90;;;;;;5074306;28;20261;-69
2022/10/31 18:48:31;;;;;;;42.20;25.83;;;13.70;99.90;;;;;;5074505;28;20272;-68
2022/10/31 18:51:02;;;;;;;34.70;21.73;;;13.60;99.90;;;;;;5074283;28;20676;-69
2022/10/31 18:53:32;;;;;;;28.90;19.97;;;13.60;99.90;;;;;;5072965;28;20305;-69
2022/10/31 18:56:01;;;;;;;24.47;18.57;;;13.50;99.90;;;;;;5074355;28;20199;-68
2022/10/31 18:58:32;;;;;;;26.13;18.23;;;13.50;99.90;;;;;;5073712;28;20247;-71
2022/10/31 19:01:06;;;;;;;29.87;20.23;;;13.50;99.90;;;;;;5073474;28;20285;-67
2022/10/31 19:03:35;;;;;;;29.03;19.73;;;13.50;99.90;;;;;;5074078;28;20654;-68
2022/10/31 19:06:03;;;;;;;27.57;20.03;;;13.40;99.90;;;;;;5073870;28;20197;-68
2022/10/31 19:08:32;;;;;;;29.77;19.77;;;13.40;99.90;;;;;;5074150;28;20605;-68
2022/10/31 19:11:05;;;;;;;29.60;20.83;;;13.40;99.90;;;;;;5073985;28;20193;-66
2022/10/31 19:13:35;;;;;;;27.67;20.67;;;13.50;99.90;;;;;;5073861;28;20189;-68
2022/10/31 19:16:05;;;;;;;30.90;21.97;;;13.40;99.90;;;;;;5072520;28;20201;-67
2022/10/31 19:18:34;;;;;;;31.50;22.73;;;13.40;99.90;;;;;;5073734;28;20569;-67
2022/10/31 19:21:06;;;;;;;30.57;22.73;;;13.40;99.90;;;;;;5072482;28;20232;-71
2022/10/31 19:23:34;;;;;;;32.70;23.90;;;13.40;99.90;;;;;;5073795;28;20225;-69
2022/10/31 19:26:03;;;;;;;37.57;23.77;;;13.40;99.90;;;;;;5073604;28;20264;-68
2022/10/31 19:28:32;;;;;;;31.47;22.77;;;13.40;99.90;;;;;;5073641;28;20562;-67
2022/10/31 19:31:02;;;;;;;31.57;23.53;;;13.40;99.90;;;;;;5073423;28;20706;-68
2022/10/31 19:33:31;;;;;;;29.23;23.50;;;13.50;99.90;;;;;;5073351;28;20205;-66
2022/10/31 19:36:03;;;;;;;32.67;22.77;;;13.40;99.90;;;;;;5073074;28;20255;-67
2022/10/31 19:38:32;;;;;;;35.63;25.47;;;13.40;99.90;;;;;;5073255;28;20309;-67
2022/10/31 19:41:03;;;;;;;36.47;25.43;;;13.40;99.90;;;;;;5073065;28;20656;-69
2022/10/31 19:43:32;;;;;;;42.00;30.10;;;13.40;99.90;;;;;;5073023;28;20229;-67
2022/10/31 19:46:03;;;;;;;37.60;24.70;;;13.40;99.90;;;;;;5073314;28;20194;-68
2022/10/31 19:48:32;;;;;;;31.20;21.87;;;13.40;99.90;;;;;;5073077;28;20663;-67
2022/10/31 19:51:01;;;;;;;25.87;18.77;;;13.30;99.90;;;;;;5072904;28;20250;-66
2022/10/31 19:53:30;;;;;;;29.67;18.70;;;13.40;99.90;;;;;;5072885;28;20660;-70
2022/10/31 19:55:59;;;;;;;29.40;19.17;;;13.30;99.90;;;;;;5073052;28;20193;-70
2022/10/31 19:58:28;;;;;;;26.67;18.70;;;13.30;99.90;;;;;;5072760;28;20236;-76
2022/10/31 20:00:56;;;;;;;33.07;16.40;;;13.30;99.90;;;;;;5086874;28;20206;-71
2022/10/31 20:03:27;;;;;;;78.50;26.10;;;13.30;99.90;;;;;;5093721;28;20667;-67
2022/10/31 20:05:55;;;;;;;44.30;17.23;;;13.20;99.90;;;;;;5092699;28;20204;-68
2022/10/31 20:08:24;;;;;;;25.20;14.67;;;13.20;99.90;;;;;;5092487;28;20235;-72
2022/10/31 20:10:56;;;;;;;22.63;13.80;;;13.10;99.90;;;;;;5091693;28;20195;-75
2022/10/31 20:13:25;;;;;;;87.77;36.33;;;13.10;99.90;;;;;;5092035;28;20653;-67
2022/10/31 20:15:59;;;;;;;81.50;36.50;;;13.10;99.90;;;;;;5091918;28;20188;-67
2022/10/31 20:18:29;;;;;;;27.20;17.00;;;13.10;99.90;;;;;;5091858;28;20265;-70
2022/10/31 20:21:02;;;;;;;18.03;13.10;;;13.10;99.90;;;;;;5091930;28;20204;-71
2022/10/31 20:23:32;;;;;;;19.07;12.30;;;13.10;99.90;;;;;;5099470;28;20196;-66
2022/10/31 20:26:01;;;;;;;15.73;12.10;;;13.10;99.90;;;;;;5091965;28;20219;-72
2022/10/31 20:28:30;;;;;;;20.93;13.33;;;13.10;99.90;;;;;;5085275;28;20205;-67
2022/10/31 20:30:59;;;;;;;15.40;11.53;;;13.10;99.90;;;;;;5101876;28;20697;-76
2022/10/31 20:33:28;;;;;;;12.70;9.67;;;13.10;99.90;;;;;;5110660;28;20200;-68
2022/10/31 20:35:57;;;;;;;14.13;9.57;;;13.00;99.90;;;;;;5108071;28;20219;-76
2022/10/31 20:38:25;;;;;;;14.33;10.23;;;13.10;99.90;;;;;;5082611;28;20213;-69
2022/10/31 20:40:53;;;;;;;16.63;11.00;;;13.10;99.90;;;;;;5088344;28;20271;-69
2022/10/31 20:43:22;;;;;;;16.13;11.63;;;13.10;99.90;;;;;;5079369;28;20223;-76
2022/10/31 20:45:50;;;;;;;17.87;12.53;;;13.10;99.90;;;;;;5080397;28;20307;-68
2022/10/31 20:48:21;;;;;;;19.37;13.07;;;13.10;99.90;;;;;;5091639;28;20602;-68
2022/10/31 20:50:56;;;;;;;15.60;12.10;;;13.10;99.90;;;;;;5081982;28;20193;-71
2022/10/31 20:53:24;;;;;;;13.97;11.17;;;13.20;99.90;;;;;;5073366;28;20212;-67
2022/10/31 20:56:01;;;;;;;14.93;11.13;;;13.20;99.90;;;;;;5078181;28;20193;-68
2022/10/31 20:58:33;;;;;;;12.67;10.33;;;13.30;99.90;;;;;;5098717;28;20310;-67
2022/10/31 21:01:01;;;;;;;17.53;12.23;;;13.30;99.90;;;;;;5110724;28;20219;-66
2022/10/31 21:03:30;;;;;;;15.33;10.73;;;13.30;99.90;;;;;;5111870;28;20192;-70
2022/10/31 21:06:01;;;;;;;16.27;11.17;;;13.30;99.90;;;;;;5111736;28;20195;-68
2022/10/31 21:08:31;;;;;;;15.00;11.43;;;13.30;99.90;;;;;;5110538;28;20694;-69
2022/10/31 21:11:00;;;;;;;13.67;9.93;;;13.30;99.90;;;;;;5111745;28;20203;-68
2022/10/31 21:13:29;;;;;;;14.30;10.50;;;13.30;99.90;;;;;;5111368;28;20603;-68
2022/10/31 21:16:00;;;;;;;45.60;15.10;;;13.30;99.90;;;;;;5108709;28;20608;-69
2022/10/31 21:18:29;;;;;;;21.17;11.80;;;13.30;99.90;;;;;;5109986;28;20697;-70
2022/10/31 21:20:58;;;;;;;14.20;9.73;;;13.30;99.90;;;;;;5100413;28;20194;-68
2022/10/31 21:23:28;;;;;;;11.10;8.87;;;13.30;99.90;;;;;;5093386;28;20223;-68
2022/10/31 21:25:56;;;;;;;12.17;8.73;;;13.40;99.90;;;;;;5095124;28;20188;-67
2022/10/31 21:28:24;;;;;;;12.03;9.20;;;13.40;99.90;;;;;;5095150;28;20192;-67
2022/10/31 21:30:53;;;;;;;12.33;7.77;;;13.40;99.90;;;;;;5094377;28;20221;-66
2022/10/31 21:33:21;;;;;;;10.40;8.10;;;13.40;99.90;;;;;;5091184;28;20226;-67
2022/10/31 21:35:50;;;;;;;8.30;6.70;;;13.40;99.90;;;;;;5074429;28;20230;-66
2022/10/31 21:38:20;;;;;;;9.93;7.67;;;13.40;99.90;;;;;;5081553;28;20216;-68
2022/10/31 21:40:48;;;;;;;9.63;7.77;;;13.30;99.90;;;;;;5093577;28;20677;-68
2022/10/31 21:43:17;;;;;;;11.80;8.10;;;13.30;99.90;;;;;;5094601;28;20196;-69
2022/10/31 21:45:45;;;;;;;8.53;7.10;;;13.30;99.90;;;;;;5076993;28;20205;-67
2022/10/31 21:48:13;;;;;;;11.10;7.20;;;13.40;99.90;;;;;;5074473;28;20205;-73
2022/10/31 21:50:42;;;;;;;9.20;8.17;;;13.40;99.90;;;;;;5082208;28;20678;-69
2022/10/31 21:56:02;;;;;;;11.07;7.53;;;13.30;99.90;;;;;;5094427;28;20255;-69
2022/10/31 21:58:31;;;;;;;10.07;7.77;;;13.40;99.90;;;;;;5094317;28;20248;-67
2022/10/31 22:01:01;;;;;;;10.97;8.40;;;13.40;99.90;;;;;;5094563;28;20623;-67
2022/10/31 22:03:30;;;;;;;11.83;8.60;;;13.40;99.90;;;;;;5094276;28;20643;-69
2022/10/31 22:06:02;;;;;;;11.77;8.67;;;13.40;99.90;;;;;;5094286;28;20192;-67
2022/10/31 22:08:31;;;;;;;12.53;8.70;;;13.50;99.90;;;;;;5094345;28;20198;-73
2022/10/31 22:11:04;;;;;;;14.80;10.63;;;13.50;99.90;;;;;;5094211;28;20196;-71
2022/10/31 22:13:33;;;;;;;16.00;11.20;;;13.60;99.90;;;;;;5093985;28;20194;-74
2022/10/31 22:16:01;;;;;;;13.30;10.30;;;13.60;99.90;;;;;;5092454;28;20197;-70
2022/10/31 22:18:30;;;;;;;15.83;10.83;;;13.60;99.90;;;;;;5084314;28;20724;-68
2022/10/31 22:21:02;;;;;;;17.37;12.43;;;13.60;99.90;;;;;;5083932;28;20201;-66
2022/10/31 22:23:30;;;;;;;21.10;11.97;;;13.50;99.90;;;;;;5093948;28;20317;-68
2022/10/31 22:26:04;;;;;;;15.70;10.07;;;13.50;99.90;;;;;;5093761;28;20187;-70
2022/10/31 22:28:34;;;;;;;14.17;9.83;;;13.50;99.90;;;;;;5093649;28;20207;-66
2022/10/31 22:31:05;;;;;;;16.00;10.07;;;13.60;99.90;;;;;;5094024;28;20202;-66
2022/10/31 22:33:33;;;;;;;16.23;11.40;;;13.50;99.90;;;;;;5093688;28;20579;-65
